sensor_id;sensor_type;location;lat;lon;timestamp;P1;durP1;ratioP1;P2;durP2;ratioP2
51862;SDS011;37900;52.996;6.278;2023-01-10T00:02:02;24.33;;;16.35;;
51862;SDS011;37900;52.996;6.278;2023-01-10T00:04:28;23.02;;;16.48;;
51862;SDS011;37900;52.996;6.278;2023-01-10T00:06:55;22.73;;;16.25;;
51862;SDS011;37900;52.996;6.278;2023-01-10T00:09:20;24.58;;;16.90;;
51862;SDS011;37900;52.996;6.278;2023-01-10T00:11:46;22.60;;;15.30;;
51862;SDS011;37900;52.996;6.278;2023-01-10T00:14:31;20.35;;;15.80;;
51862;SDS011;37900;52.996;6.278;2023-01-10T00:17:03;24.98;;;16.70;;
51862;SDS011;37900;52.996;6.278;2023-01-10T00:19:29;22.00;;;16.10;;
51862;SDS011;37900;52.996;6.278;2023-01-10T00:21:55;20.80;;;16.20;;
51862;SDS011;37900;52.996;6.278;2023-01-10T00:24:31;23.45;;;14.77;;
51862;SDS011;37900;52.996;6.278;2023-01-10T00:26:57;20.65;;;15.57;;
51862;SDS011;37900;52.996;6.278;2023-01-10T00:29:27;23.95;;;17.02;;
51862;SDS011;37900;52.996;6.278;2023-01-10T00:31:55;20.73;;;14.93;;
51862;SDS011;37900;52.996;6.278;2023-01-10T00:34:21;19.92;;;14.63;;
51862;SDS011;37900;52.996;6.278;2023-01-10T00:36:47;19.60;;;14.00;;
51862;SDS011;37900;52.996;6.278;2023-01-10T00:39:14;21.02;;;14.55;;
51862;SDS011;37900;52.996;6.278;2023-01-10T00:41:42;20.83;;;14.10;;
51862;SDS011;37900;52.996;6.278;2023-01-10T00:44:28;18.65;;;14.73;;
51862;SDS011;37900;52.996;6.278;2023-01-10T00:46:53;18.38;;;14.27;;
51862;SDS011;37900;52.996;6.278;2023-01-10T00:49:19;19.38;;;14.73;;
51862;SDS011;37900;52.996;6.278;2023-01-10T00:51:45;19.10;;;14.55;;
51862;SDS011;37900;52.996;6.278;2023-01-10T00:54:11;19.63;;;13.75;;
51862;SDS011;37900;52.996;6.278;2023-01-10T00:56:38;21.88;;;14.13;;
51862;SDS011;37900;52.996;6.278;2023-01-10T00:59:04;20.58;;;13.93;;
51862;SDS011;37900;52.996;6.278;2023-01-10T01:01:30;19.17;;;13.77;;
51862;SDS011;37900;52.996;6.278;2023-01-10T01:03:56;20.80;;;13.75;;
51862;SDS011;37900;52.996;6.278;2023-01-10T01:06:25;18.85;;;13.10;;
51862;SDS011;37900;52.996;6.278;2023-01-10T01:08:51;17.52;;;13.88;;
51862;SDS011;37900;52.996;6.278;2023-01-10T01:11:16;19.60;;;14.20;;
51862;SDS011;37900;52.996;6.278;2023-01-10T01:13:42;19.15;;;14.02;;
51862;SDS011;37900;52.996;6.278;2023-01-10T01:16:08;19.98;;;13.70;;
51862;SDS011;37900;52.996;6.278;2023-01-10T01:18:34;21.88;;;13.48;;
51862;SDS011;37900;52.996;6.278;2023-01-10T01:21:00;17.35;;;13.73;;
51862;SDS011;37900;52.996;6.278;2023-01-10T01:23:27;18.02;;;13.20;;
51862;SDS011;37900;52.996;6.278;2023-01-10T01:25:54;18.38;;;12.85;;
51862;SDS011;37900;52.996;6.278;2023-01-10T01:28:21;20.67;;;13.00;;
51862;SDS011;37900;52.996;6.278;2023-01-10T01:30:47;15.82;;;13.02;;
51862;SDS011;37900;52.996;6.278;2023-01-10T01:33:13;16.95;;;12.35;;
51862;SDS011;37900;52.996;6.278;2023-01-10T01:35:43;18.58;;;12.93;;
51862;SDS011;37900;52.996;6.278;2023-01-10T01:38:10;16.40;;;13.05;;
51862;SDS011;37900;52.996;6.278;2023-01-10T01:40:36;17.83;;;13.32;;
51862;SDS011;37900;52.996;6.278;2023-01-10T01:43:03;14.40;;;11.55;;
51862;SDS011;37900;52.996;6.278;2023-01-10T01:45:32;16.23;;;12.68;;
51862;SDS011;37900;52.996;6.278;2023-01-10T01:51:01;15.38;;;12.05;;
51862;SDS011;37900;52.996;6.278;2023-01-10T01:56:01;16.77;;;11.95;;
51862;SDS011;37900;52.996;6.278;2023-01-10T01:58:34;16.98;;;12.98;;
51862;SDS011;37900;52.996;6.278;2023-01-10T02:01:13;16.35;;;11.60;;
51862;SDS011;37900;52.996;6.278;2023-01-10T02:03:40;15.38;;;11.73;;
51862;SDS011;37900;52.996;6.278;2023-01-10T02:06:07;15.15;;;12.05;;
51862;SDS011;37900;52.996;6.278;2023-01-10T02:08:33;15.93;;;11.52;;
51862;SDS011;37900;52.996;6.278;2023-01-10T02:11:04;14.13;;;11.57;;
51862;SDS011;37900;52.996;6.278;2023-01-10T02:13:33;14.25;;;11.05;;
51862;SDS011;37900;52.996;6.278;2023-01-10T02:16:02;17.98;;;12.43;;
51862;SDS011;37900;52.996;6.278;2023-01-10T02:18:27;16.73;;;12.18;;
51862;SDS011;37900;52.996;6.278;2023-01-10T02:21:17;17.02;;;11.35;;
51862;SDS011;37900;52.996;6.278;2023-01-10T02:34:31;13.45;;;10.45;;
51862;SDS011;37900;52.996;6.278;2023-01-10T02:37:15;13.80;;;10.00;;
51862;SDS011;37900;52.996;6.278;2023-01-10T02:42:40;13.18;;;10.73;;
51862;SDS011;37900;52.996;6.278;2023-01-10T02:45:16;14.55;;;10.50;;
51862;SDS011;37900;52.996;6.278;2023-01-10T02:47:53;13.70;;;10.57;;
51862;SDS011;37900;52.996;6.278;2023-01-10T02:53:16;14.38;;;10.63;;
51862;SDS011;37900;52.996;6.278;2023-01-10T02:55:48;12.45;;;9.90;;
51862;SDS011;37900;52.996;6.278;2023-01-10T03:01:15;12.98;;;9.68;;
51862;SDS011;37900;52.996;6.278;2023-01-10T03:03:49;13.13;;;10.02;;
51862;SDS011;37900;52.996;6.278;2023-01-10T03:06:53;13.43;;;10.32;;
51862;SDS011;37900;52.996;6.278;2023-01-10T03:12:43;12.38;;;9.30;;
51862;SDS011;37900;52.996;6.278;2023-01-10T03:15:17;13.70;;;9.80;;
51862;SDS011;37900;52.996;6.278;2023-01-10T03:17:44;11.55;;;9.48;;
51862;SDS011;37900;52.996;6.278;2023-01-10T03:20:13;11.23;;;8.68;;
51862;SDS011;37900;52.996;6.278;2023-01-10T03:22:39;12.50;;;9.55;;
51862;SDS011;37900;52.996;6.278;2023-01-10T03:25:08;12.50;;;9.18;;
51862;SDS011;37900;52.996;6.278;2023-01-10T03:27:51;13.32;;;9.75;;
51862;SDS011;37900;52.996;6.278;2023-01-10T03:32:48;13.23;;;9.43;;
51862;SDS011;37900;52.996;6.278;2023-01-10T03:35:14;11.70;;;8.82;;
51862;SDS011;37900;52.996;6.278;2023-01-10T03:40:32;12.88;;;8.95;;
51862;SDS011;37900;52.996;6.278;2023-01-10T03:43:10;13.52;;;9.77;;
51862;SDS011;37900;52.996;6.278;2023-01-10T03:46:17;13.80;;;9.20;;
51862;SDS011;37900;52.996;6.278;2023-01-10T03:48:51;10.82;;;8.38;;
51862;SDS011;37900;52.996;6.278;2023-01-10T03:51:21;11.00;;;7.88;;
51862;SDS011;37900;52.996;6.278;2023-01-10T03:53:47;12.63;;;8.80;;
51862;SDS011;37900;52.996;6.278;2023-01-10T03:56:13;11.35;;;8.70;;
51862;SDS011;37900;52.996;6.278;2023-01-10T03:58:39;12.32;;;8.93;;
51862;SDS011;37900;52.996;6.278;2023-01-10T04:01:05;11.07;;;9.13;;
51862;SDS011;37900;52.996;6.278;2023-01-10T04:03:31;11.43;;;8.90;;
51862;SDS011;37900;52.996;6.278;2023-01-10T04:05:57;11.55;;;8.80;;
51862;SDS011;37900;52.996;6.278;2023-01-10T04:08:22;12.30;;;8.60;;
51862;SDS011;37900;52.996;6.278;2023-01-10T04:10:48;11.93;;;8.10;;
51862;SDS011;37900;52.996;6.278;2023-01-10T04:13:14;9.68;;;7.88;;
51862;SDS011;37900;52.996;6.278;2023-01-10T04:15:40;9.90;;;8.43;;
51862;SDS011;37900;52.996;6.278;2023-01-10T04:18:05;11.60;;;7.88;;
51862;SDS011;37900;52.996;6.278;2023-01-10T04:20:31;9.57;;;8.55;;
51862;SDS011;37900;52.996;6.278;2023-01-10T04:22:57;10.93;;;8.05;;
51862;SDS011;37900;52.996;6.278;2023-01-10T04:25:22;9.45;;;8.07;;
51862;SDS011;37900;52.996;6.278;2023-01-10T04:27:49;11.35;;;8.18;;
51862;SDS011;37900;52.996;6.278;2023-01-10T04:30:16;12.43;;;8.75;;
51862;SDS011;37900;52.996;6.278;2023-01-10T04:32:43;11.23;;;8.35;;
51862;SDS011;37900;52.996;6.278;2023-01-10T04:35:08;10.95;;;7.50;;
51862;SDS011;37900;52.996;6.278;2023-01-10T04:37:34;11.93;;;7.85;;
51862;SDS011;37900;52.996;6.278;2023-01-10T04:40:00;10.68;;;8.07;;
51862;SDS011;37900;52.996;6.278;2023-01-10T04:42:26;10.40;;;8.00;;
51862;SDS011;37900;52.996;6.278;2023-01-10T04:44:51;11.32;;;7.90;;
51862;SDS011;37900;52.996;6.278;2023-01-10T04:47:17;8.25;;;6.93;;
51862;SDS011;37900;52.996;6.278;2023-01-10T04:49:43;9.95;;;7.10;;
51862;SDS011;37900;52.996;6.278;2023-01-10T04:52:09;11.25;;;7.88;;
51862;SDS011;37900;52.996;6.278;2023-01-10T04:54:35;9.48;;;7.28;;
51862;SDS011;37900;52.996;6.278;2023-01-10T04:57:00;9.45;;;7.20;;
51862;SDS011;37900;52.996;6.278;2023-01-10T04:59:26;9.90;;;7.80;;
51862;SDS011;37900;52.996;6.278;2023-01-10T05:01:52;9.07;;;7.40;;
51862;SDS011;37900;52.996;6.278;2023-01-10T05:04:18;10.32;;;7.28;;
51862;SDS011;37900;52.996;6.278;2023-01-10T05:06:43;10.43;;;7.18;;
51862;SDS011;37900;52.996;6.278;2023-01-10T05:09:09;9.30;;;6.28;;
51862;SDS011;37900;52.996;6.278;2023-01-10T05:11:35;11.77;;;7.50;;
51862;SDS011;37900;52.996;6.278;2023-01-10T05:14:01;10.35;;;6.53;;
51862;SDS011;37900;52.996;6.278;2023-01-10T05:16:27;9.55;;;7.13;;
51862;SDS011;37900;52.996;6.278;2023-01-10T05:18:52;9.85;;;7.25;;
51862;SDS011;37900;52.996;6.278;2023-01-10T05:21:18;9.20;;;6.70;;
51862;SDS011;37900;52.996;6.278;2023-01-10T05:23:44;8.35;;;6.75;;
51862;SDS011;37900;52.996;6.278;2023-01-10T05:26:14;9.63;;;6.68;;
51862;SDS011;37900;52.996;6.278;2023-01-10T05:28:41;9.90;;;6.70;;
51862;SDS011;37900;52.996;6.278;2023-01-10T05:31:08;10.13;;;6.95;;
51862;SDS011;37900;52.996;6.278;2023-01-10T05:33:35;8.57;;;6.47;;
51862;SDS011;37900;52.996;6.278;2023-01-10T05:36:02;9.13;;;6.50;;
51862;SDS011;37900;52.996;6.278;2023-01-10T05:38:29;8.07;;;6.63;;
51862;SDS011;37900;52.996;6.278;2023-01-10T05:40:55;9.63;;;7.22;;
51862;SDS011;37900;52.996;6.278;2023-01-10T05:43:22;9.27;;;6.63;;
51862;SDS011;37900;52.996;6.278;2023-01-10T05:45:48;8.68;;;6.75;;
51862;SDS011;37900;52.996;6.278;2023-01-10T05:48:15;9.95;;;7.55;;
51862;SDS011;37900;52.996;6.278;2023-01-10T05:50:40;9.15;;;6.72;;
51862;SDS011;37900;52.996;6.278;2023-01-10T05:53:06;8.70;;;6.68;;
51862;SDS011;37900;52.996;6.278;2023-01-10T05:55:32;8.70;;;6.25;;
51862;SDS011;37900;52.996;6.278;2023-01-10T05:57:58;9.40;;;5.60;;
51862;SDS011;37900;52.996;6.278;2023-01-10T06:00:24;9.82;;;6.45;;
51862;SDS011;37900;52.996;6.278;2023-01-10T06:02:52;9.40;;;6.60;;
51862;SDS011;37900;52.996;6.278;2023-01-10T06:05:19;7.40;;;5.57;;
51862;SDS011;37900;52.996;6.278;2023-01-10T06:07:44;10.20;;;6.43;;
51862;SDS011;37900;52.996;6.278;2023-01-10T06:10:10;8.90;;;6.55;;
51862;SDS011;37900;52.996;6.278;2023-01-10T06:12:38;8.18;;;6.25;;
51862;SDS011;37900;52.996;6.278;2023-01-10T06:15:04;8.63;;;5.60;;
51862;SDS011;37900;52.996;6.278;2023-01-10T06:17:31;8.80;;;6.50;;
51862;SDS011;37900;52.996;6.278;2023-01-10T06:19:57;8.82;;;6.78;;
51862;SDS011;37900;52.996;6.278;2023-01-10T06:22:22;9.52;;;6.40;;
51862;SDS011;37900;52.996;6.278;2023-01-10T06:24:48;8.63;;;6.20;;
51862;SDS011;37900;52.996;6.278;2023-01-10T06:27:14;8.25;;;6.28;;
51862;SDS011;37900;52.996;6.278;2023-01-10T06:29:39;8.48;;;6.10;;
51862;SDS011;37900;52.996;6.278;2023-01-10T06:32:05;9.07;;;6.68;;
51862;SDS011;37900;52.996;6.278;2023-01-10T06:34:31;6.68;;;5.40;;
51862;SDS011;37900;52.996;6.278;2023-01-10T06:36:56;8.20;;;6.38;;
51862;SDS011;37900;52.996;6.278;2023-01-10T06:39:22;7.38;;;5.35;;
51862;SDS011;37900;52.996;6.278;2023-01-10T06:41:48;9.13;;;6.30;;
51862;SDS011;37900;52.996;6.278;2023-01-10T06:44:13;8.35;;;5.70;;
51862;SDS011;37900;52.996;6.278;2023-01-10T06:46:39;7.55;;;6.63;;
51862;SDS011;37900;52.996;6.278;2023-01-10T06:49:05;8.75;;;6.13;;
51862;SDS011;37900;52.996;6.278;2023-01-10T06:51:30;8.00;;;5.22;;
51862;SDS011;37900;52.996;6.278;2023-01-10T06:53:56;6.78;;;5.13;;
51862;SDS011;37900;52.996;6.278;2023-01-10T06:56:22;6.32;;;5.10;;
51862;SDS011;37900;52.996;6.278;2023-01-10T06:58:48;7.68;;;5.50;;
51862;SDS011;37900;52.996;6.278;2023-01-10T07:01:15;8.25;;;6.32;;
51862;SDS011;37900;52.996;6.278;2023-01-10T07:03:42;11.13;;;7.40;;
51862;SDS011;37900;52.996;6.278;2023-01-10T07:06:08;10.63;;;7.63;;
51862;SDS011;37900;52.996;6.278;2023-01-10T07:08:42;15.13;;;7.40;;
51862;SDS011;37900;52.996;6.278;2023-01-10T07:11:09;13.27;;;6.50;;
51862;SDS011;37900;52.996;6.278;2023-01-10T07:16:10;8.85;;;6.90;;
51862;SDS011;37900;52.996;6.278;2023-01-10T07:18:38;10.55;;;6.90;;
51862;SDS011;37900;52.996;6.278;2023-01-10T07:21:05;11.10;;;6.88;;
51862;SDS011;37900;52.996;6.278;2023-01-10T07:23:32;8.52;;;7.00;;
51862;SDS011;37900;52.996;6.278;2023-01-10T07:26:01;9.77;;;6.93;;
51862;SDS011;37900;52.996;6.278;2023-01-10T07:28:31;9.07;;;6.25;;
51862;SDS011;37900;52.996;6.278;2023-01-10T07:30:58;8.57;;;5.85;;
51862;SDS011;37900;52.996;6.278;2023-01-10T07:33:29;9.75;;;6.70;;
51862;SDS011;37900;52.996;6.278;2023-01-10T07:35:55;8.35;;;6.53;;
51862;SDS011;37900;52.996;6.278;2023-01-10T07:38:22;9.97;;;6.90;;
51862;SDS011;37900;52.996;6.278;2023-01-10T07:40:48;9.25;;;5.95;;
51862;SDS011;37900;52.996;6.278;2023-01-10T07:43:13;7.70;;;6.05;;
51862;SDS011;37900;52.996;6.278;2023-01-10T07:45:39;9.55;;;6.85;;
51862;SDS011;37900;52.996;6.278;2023-01-10T07:48:05;10.45;;;7.15;;
51862;SDS011;37900;52.996;6.278;2023-01-10T07:50:32;8.27;;;5.88;;
51862;SDS011;37900;52.996;6.278;2023-01-10T07:52:59;11.70;;;6.70;;
51862;SDS011;37900;52.996;6.278;2023-01-10T07:55:26;8.95;;;5.78;;
51862;SDS011;37900;52.996;6.278;2023-01-10T07:57:52;8.70;;;5.97;;
51862;SDS011;37900;52.996;6.278;2023-01-10T08:00:18;9.23;;;6.75;;
51862;SDS011;37900;52.996;6.278;2023-01-10T08:02:44;9.68;;;6.07;;
51862;SDS011;37900;52.996;6.278;2023-01-10T08:05:10;7.25;;;5.82;;
51862;SDS011;37900;52.996;6.278;2023-01-10T08:07:36;10.73;;;6.60;;
51862;SDS011;37900;52.996;6.278;2023-01-10T08:10:03;8.77;;;6.13;;
51862;SDS011;37900;52.996;6.278;2023-01-10T08:12:30;9.20;;;5.95;;
51862;SDS011;37900;52.996;6.278;2023-01-10T08:14:56;8.93;;;5.70;;
51862;SDS011;37900;52.996;6.278;2023-01-10T08:17:23;9.10;;;5.68;;
51862;SDS011;37900;52.996;6.278;2023-01-10T08:19:49;7.95;;;6.05;;
51862;SDS011;37900;52.996;6.278;2023-01-10T08:22:14;6.78;;;5.28;;
51862;SDS011;37900;52.996;6.278;2023-01-10T08:24:40;8.45;;;6.13;;
51862;SDS011;37900;52.996;6.278;2023-01-10T08:27:06;7.15;;;5.68;;
51862;SDS011;37900;52.996;6.278;2023-01-10T08:29:32;7.32;;;5.70;;
51862;SDS011;37900;52.996;6.278;2023-01-10T08:31:57;9.02;;;5.60;;
51862;SDS011;37900;52.996;6.278;2023-01-10T08:34:23;9.18;;;6.30;;
51862;SDS011;37900;52.996;6.278;2023-01-10T08:36:49;8.20;;;5.78;;
51862;SDS011;37900;52.996;6.278;2023-01-10T08:39:16;7.47;;;4.97;;
51862;SDS011;37900;52.996;6.278;2023-01-10T08:41:42;8.15;;;5.60;;
51862;SDS011;37900;52.996;6.278;2023-01-10T08:44:08;9.23;;;5.75;;
51862;SDS011;37900;52.996;6.278;2023-01-10T08:46:36;9.77;;;5.32;;
51862;SDS011;37900;52.996;6.278;2023-01-10T08:49:02;7.63;;;5.05;;
51862;SDS011;37900;52.996;6.278;2023-01-10T08:51:28;8.20;;;5.90;;
51862;SDS011;37900;52.996;6.278;2023-01-10T08:53:54;8.88;;;5.57;;
51862;SDS011;37900;52.996;6.278;2023-01-10T08:56:19;8.63;;;5.30;;
51862;SDS011;37900;52.996;6.278;2023-01-10T08:58:45;6.68;;;5.57;;
51862;SDS011;37900;52.996;6.278;2023-01-10T09:01:11;7.53;;;5.78;;
51862;SDS011;37900;52.996;6.278;2023-01-10T09:03:38;8.95;;;5.88;;
51862;SDS011;37900;52.996;6.278;2023-01-10T09:06:04;6.13;;;5.18;;
51862;SDS011;37900;52.996;6.278;2023-01-10T09:08:30;7.67;;;4.83;;
51862;SDS011;37900;52.996;6.278;2023-01-10T09:10:59;8.07;;;5.70;;
51862;SDS011;37900;52.996;6.278;2023-01-10T09:13:26;9.65;;;6.03;;
51862;SDS011;37900;52.996;6.278;2023-01-10T09:15:53;6.40;;;5.40;;
51862;SDS011;37900;52.996;6.278;2023-01-10T09:18:19;5.88;;;5.05;;
51862;SDS011;37900;52.996;6.278;2023-01-10T09:20:45;7.25;;;5.40;;
51862;SDS011;37900;52.996;6.278;2023-01-10T09:23:11;6.97;;;4.93;;
51862;SDS011;37900;52.996;6.278;2023-01-10T09:25:42;6.03;;;4.80;;
51862;SDS011;37900;52.996;6.278;2023-01-10T09:28:08;9.65;;;5.03;;
51862;SDS011;37900;52.996;6.278;2023-01-10T09:30:33;7.15;;;5.53;;
51862;SDS011;37900;52.996;6.278;2023-01-10T09:32:59;8.30;;;5.18;;
51862;SDS011;37900;52.996;6.278;2023-01-10T09:35:26;6.97;;;4.40;;
51862;SDS011;37900;52.996;6.278;2023-01-10T09:37:54;6.35;;;4.88;;
51862;SDS011;37900;52.996;6.278;2023-01-10T09:40:28;5.75;;;5.10;;
51862;SDS011;37900;52.996;6.278;2023-01-10T09:53:51;5.63;;;4.57;;
51862;SDS011;37900;52.996;6.278;2023-01-10T09:56:23;8.02;;;5.22;;
51862;SDS011;37900;52.996;6.278;2023-01-10T09:58:50;6.72;;;4.75;;
51862;SDS011;37900;52.996;6.278;2023-01-10T10:01:17;8.48;;;5.10;;
51862;SDS011;37900;52.996;6.278;2023-01-10T10:06:28;7.72;;;4.95;;
51862;SDS011;37900;52.996;6.278;2023-01-10T10:08:53;7.80;;;5.22;;
51862;SDS011;37900;52.996;6.278;2023-01-10T10:14:02;7.65;;;4.47;;
51862;SDS011;37900;52.996;6.278;2023-01-10T10:22:12;6.22;;;4.18;;
51862;SDS011;37900;52.996;6.278;2023-01-10T10:25:00;6.65;;;4.65;;
51862;SDS011;37900;52.996;6.278;2023-01-10T10:35:52;5.95;;;4.50;;
51862;SDS011;37900;52.996;6.278;2023-01-10T10:38:31;6.10;;;4.60;;
51862;SDS011;37900;52.996;6.278;2023-01-10T10:41:01;6.28;;;4.55;;
51862;SDS011;37900;52.996;6.278;2023-01-10T10:43:32;7.53;;;4.50;;
51862;SDS011;37900;52.996;6.278;2023-01-10T10:46:01;6.35;;;4.35;;
51862;SDS011;37900;52.996;6.278;2023-01-10T10:48:32;7.95;;;5.07;;
51862;SDS011;37900;52.996;6.278;2023-01-10T10:52:07;6.13;;;4.35;;
51862;SDS011;37900;52.996;6.278;2023-01-10T10:53:58;5.70;;;4.13;;
51862;SDS011;37900;52.996;6.278;2023-01-10T10:56:24;5.57;;;4.15;;
51862;SDS011;37900;52.996;6.278;2023-01-10T10:58:51;6.45;;;4.50;;
51862;SDS011;37900;52.996;6.278;2023-01-10T11:01:20;6.43;;;4.07;;
51862;SDS011;37900;52.996;6.278;2023-01-10T11:04:06;6.53;;;4.15;;
51862;SDS011;37900;52.996;6.278;2023-01-10T11:06:35;5.90;;;4.43;;
51862;SDS011;37900;52.996;6.278;2023-01-10T11:09:04;7.75;;;4.60;;
51862;SDS011;37900;52.996;6.278;2023-01-10T11:11:36;6.28;;;4.32;;
51862;SDS011;37900;52.996;6.278;2023-01-10T11:14:08;5.65;;;4.10;;
51862;SDS011;37900;52.996;6.278;2023-01-10T11:16:40;7.43;;;4.38;;
51862;SDS011;37900;52.996;6.278;2023-01-10T11:21:48;6.35;;;4.20;;
51862;SDS011;37900;52.996;6.278;2023-01-10T11:26:55;7.93;;;4.65;;
51862;SDS011;37900;52.996;6.278;2023-01-10T11:29:25;8.98;;;4.63;;
51862;SDS011;37900;52.996;6.278;2023-01-10T11:32:07;9.38;;;5.40;;
51862;SDS011;37900;52.996;6.278;2023-01-10T11:34:39;7.85;;;5.38;;
51862;SDS011;37900;52.996;6.278;2023-01-10T11:37:17;8.18;;;4.60;;
51862;SDS011;37900;52.996;6.278;2023-01-10T11:39:45;7.40;;;4.32;;
51862;SDS011;37900;52.996;6.278;2023-01-10T11:42:45;7.55;;;4.65;;
51862;SDS011;37900;52.996;6.278;2023-01-10T11:45:25;8.48;;;4.28;;
51862;SDS011;37900;52.996;6.278;2023-01-10T11:48:24;9.20;;;4.65;;
51862;SDS011;37900;52.996;6.278;2023-01-10T11:50:50;7.28;;;4.45;;
51862;SDS011;37900;52.996;6.278;2023-01-10T11:53:54;4.88;;;3.92;;
51862;SDS011;37900;52.996;6.278;2023-01-10T11:56:13;7.13;;;4.50;;
51862;SDS011;37900;52.996;6.278;2023-01-10T11:58:48;5.93;;;4.07;;
51862;SDS011;37900;52.996;6.278;2023-01-10T12:04:03;6.55;;;4.22;;
51862;SDS011;37900;52.996;6.278;2023-01-10T12:06:29;6.63;;;3.78;;
51862;SDS011;37900;52.996;6.278;2023-01-10T12:08:56;7.65;;;4.63;;
51862;SDS011;37900;52.996;6.278;2023-01-10T12:11:29;7.90;;;4.25;;
51862;SDS011;37900;52.996;6.278;2023-01-10T12:14:00;5.72;;;3.95;;
51862;SDS011;37900;52.996;6.278;2023-01-10T12:16:27;6.95;;;4.38;;
51862;SDS011;37900;52.996;6.278;2023-01-10T12:18:58;5.43;;;3.47;;
51862;SDS011;37900;52.996;6.278;2023-01-10T12:21:33;8.73;;;3.95;;
51862;SDS011;37900;52.996;6.278;2023-01-10T12:24:26;6.75;;;4.13;;
51862;SDS011;37900;52.996;6.278;2023-01-10T12:26:54;6.70;;;3.47;;
51862;SDS011;37900;52.996;6.278;2023-01-10T12:29:23;7.22;;;4.50;;
51862;SDS011;37900;52.996;6.278;2023-01-10T12:31:53;7.60;;;4.72;;
51862;SDS011;37900;52.996;6.278;2023-01-10T12:34:22;6.40;;;4.22;;
51862;SDS011;37900;52.996;6.278;2023-01-10T12:39:30;6.65;;;4.22;;
51862;SDS011;37900;52.996;6.278;2023-01-10T12:45:14;5.65;;;4.00;;
51862;SDS011;37900;52.996;6.278;2023-01-10T12:50:40;9.15;;;4.10;;
51862;SDS011;37900;52.996;6.278;2023-01-10T12:53:12;6.70;;;3.97;;
51862;SDS011;37900;52.996;6.278;2023-01-10T12:55:44;9.20;;;3.70;;
51862;SDS011;37900;52.996;6.278;2023-01-10T12:58:21;7.85;;;4.10;;
51862;SDS011;37900;52.996;6.278;2023-01-10T13:00:54;5.18;;;3.40;;
51862;SDS011;37900;52.996;6.278;2023-01-10T13:03:25;7.90;;;4.05;;
51862;SDS011;37900;52.996;6.278;2023-01-10T13:05:53;7.18;;;3.75;;
51862;SDS011;37900;52.996;6.278;2023-01-10T13:08:22;5.72;;;3.72;;
51862;SDS011;37900;52.996;6.278;2023-01-10T13:10:51;7.55;;;3.72;;
51862;SDS011;37900;52.996;6.278;2023-01-10T13:19:01;5.03;;;3.50;;
51862;SDS011;37900;52.996;6.278;2023-01-10T13:21:27;6.43;;;3.75;;
51862;SDS011;37900;52.996;6.278;2023-01-10T13:29:17;7.57;;;3.42;;
51862;SDS011;37900;52.996;6.278;2023-01-10T13:32:21;5.82;;;3.60;;
51862;SDS011;37900;52.996;6.278;2023-01-10T13:34:49;7.18;;;3.67;;
51862;SDS011;37900;52.996;6.278;2023-01-10T13:37:23;6.85;;;3.63;;
51862;SDS011;37900;52.996;6.278;2023-01-10T13:39:57;9.23;;;4.18;;
51862;SDS011;37900;52.996;6.278;2023-01-10T13:42:28;6.93;;;3.85;;
51862;SDS011;37900;52.996;6.278;2023-01-10T13:45:16;8.27;;;3.95;;
51862;SDS011;37900;52.996;6.278;2023-01-10T13:52:48;5.95;;;3.22;;
51862;SDS011;37900;52.996;6.278;2023-01-10T13:55:25;4.82;;;3.38;;
51862;SDS011;37900;52.996;6.278;2023-01-10T14:00:41;5.47;;;3.13;;
51862;SDS011;37900;52.996;6.278;2023-01-10T14:03:59;8.23;;;3.35;;
51862;SDS011;37900;52.996;6.278;2023-01-10T14:09:04;6.45;;;3.15;;
51862;SDS011;37900;52.996;6.278;2023-01-10T14:14:22;6.55;;;3.55;;
51862;SDS011;37900;52.996;6.278;2023-01-10T14:16:57;4.55;;;3.15;;
51862;SDS011;37900;52.996;6.278;2023-01-10T14:19:37;6.50;;;3.40;;
51862;SDS011;37900;52.996;6.278;2023-01-10T14:22:05;7.68;;;3.20;;
51862;SDS011;37900;52.996;6.278;2023-01-10T14:24:45;4.35;;;2.80;;
51862;SDS011;37900;52.996;6.278;2023-01-10T14:27:17;3.75;;;3.00;;
51862;SDS011;37900;52.996;6.278;2023-01-10T14:29:53;5.75;;;2.97;;
51862;SDS011;37900;52.996;6.278;2023-01-10T14:32:36;6.07;;;3.78;;
51862;SDS011;37900;52.996;6.278;2023-01-10T14:35:05;5.70;;;3.78;;
51862;SDS011;37900;52.996;6.278;2023-01-10T14:37:38;5.22;;;2.70;;
51862;SDS011;37900;52.996;6.278;2023-01-10T14:43:01;7.10;;;3.30;;
51862;SDS011;37900;52.996;6.278;2023-01-10T14:45:33;4.55;;;3.13;;
51862;SDS011;37900;52.996;6.278;2023-01-10T14:48:21;4.47;;;2.90;;
51862;SDS011;37900;52.996;6.278;2023-01-10T14:50:50;5.55;;;2.92;;
51862;SDS011;37900;52.996;6.278;2023-01-10T14:53:28;6.45;;;3.47;;
51862;SDS011;37900;52.996;6.278;2023-01-10T14:55:54;3.70;;;2.78;;
51862;SDS011;37900;52.996;6.278;2023-01-10T14:58:20;4.47;;;3.03;;
51862;SDS011;37900;52.996;6.278;2023-01-10T15:00:47;5.07;;;2.80;;
51862;SDS011;37900;52.996;6.278;2023-01-10T15:03:18;3.97;;;2.88;;
51862;SDS011;37900;52.996;6.278;2023-01-10T15:05:47;5.57;;;2.85;;
51862;SDS011;37900;52.996;6.278;2023-01-10T15:08:18;7.47;;;3.13;;
51862;SDS011;37900;52.996;6.278;2023-01-10T15:10:44;4.35;;;2.70;;
51862;SDS011;37900;52.996;6.278;2023-01-10T15:13:12;5.50;;;3.40;;
51862;SDS011;37900;52.996;6.278;2023-01-10T15:15:40;6.07;;;2.92;;
51862;SDS011;37900;52.996;6.278;2023-01-10T15:18:16;5.72;;;2.47;;
51862;SDS011;37900;52.996;6.278;2023-01-10T15:20:58;5.03;;;2.75;;
51862;SDS011;37900;52.996;6.278;2023-01-10T15:23:31;5.03;;;2.85;;
51862;SDS011;37900;52.996;6.278;2023-01-10T15:25:59;4.82;;;3.25;;
51862;SDS011;37900;52.996;6.278;2023-01-10T15:28:28;4.95;;;3.50;;
51862;SDS011;37900;52.996;6.278;2023-01-10T15:30:55;4.45;;;3.00;;
51862;SDS011;37900;52.996;6.278;2023-01-10T15:33:32;3.45;;;2.53;;
51862;SDS011;37900;52.996;6.278;2023-01-10T15:36:13;5.57;;;3.08;;
51862;SDS011;37900;52.996;6.278;2023-01-10T15:38:43;3.30;;;2.78;;
51862;SDS011;37900;52.996;6.278;2023-01-10T15:41:14;6.07;;;3.05;;
51862;SDS011;37900;52.996;6.278;2023-01-10T15:43:45;4.95;;;3.20;;
51862;SDS011;37900;52.996;6.278;2023-01-10T15:46:18;4.20;;;2.75;;
51862;SDS011;37900;52.996;6.278;2023-01-10T15:48:55;7.45;;;2.70;;
51862;SDS011;37900;52.996;6.278;2023-01-10T15:54:00;5.30;;;2.95;;
51862;SDS011;37900;52.996;6.278;2023-01-10T15:58:58;3.50;;;2.35;;
51862;SDS011;37900;52.996;6.278;2023-01-10T16:01:25;3.85;;;2.90;;
51862;SDS011;37900;52.996;6.278;2023-01-10T16:03:55;5.03;;;2.97;;
51862;SDS011;37900;52.996;6.278;2023-01-10T16:06:28;3.38;;;2.40;;
51862;SDS011;37900;52.996;6.278;2023-01-10T16:08:57;5.60;;;2.72;;
51862;SDS011;37900;52.996;6.278;2023-01-10T16:14:12;6.43;;;2.70;;
51862;SDS011;37900;52.996;6.278;2023-01-10T16:16:39;7.80;;;2.63;;
51862;SDS011;37900;52.996;6.278;2023-01-10T16:19:05;5.10;;;2.90;;
51862;SDS011;37900;52.996;6.278;2023-01-10T16:21:38;4.55;;;2.47;;
51862;SDS011;37900;52.996;6.278;2023-01-10T16:24:06;5.40;;;3.05;;
51862;SDS011;37900;52.996;6.278;2023-01-10T16:26:38;4.22;;;2.85;;
51862;SDS011;37900;52.996;6.278;2023-01-10T16:29:04;5.10;;;2.55;;
51862;SDS011;37900;52.996;6.278;2023-01-10T16:31:30;5.40;;;3.17;;
51862;SDS011;37900;52.996;6.278;2023-01-10T16:33:55;4.38;;;2.92;;
51862;SDS011;37900;52.996;6.278;2023-01-10T16:36:21;4.60;;;2.22;;
51862;SDS011;37900;52.996;6.278;2023-01-10T16:38:47;7.22;;;2.83;;
51862;SDS011;37900;52.996;6.278;2023-01-10T16:41:13;5.90;;;2.65;;
51862;SDS011;37900;52.996;6.278;2023-01-10T16:43:58;4.35;;;2.78;;
51862;SDS011;37900;52.996;6.278;2023-01-10T16:46:24;4.80;;;2.50;;
51862;SDS011;37900;52.996;6.278;2023-01-10T16:48:50;5.50;;;3.22;;
51862;SDS011;37900;52.996;6.278;2023-01-10T16:51:21;5.38;;;2.40;;
51862;SDS011;37900;52.996;6.278;2023-01-10T16:53:49;4.82;;;2.83;;